Terminal Aerodrome Forecast
Issued by NWS

Home | Current Version | Previous Version | Text Only | Print | Product List | Glossary On
Versions: 1 2 3 4 5 6 7 8 9 10 11 12 13 14 15 16 17 18 19
000
FTUS41 KBGM 271638 AAA
TAFITH
TAF AMD
KITH 271638Z 2717/2812 23010KT P6SM BKN060
      TEMPO 2717/2721 5SM TSRA OVC025CB
     FM280300 25005KT P6SM FEW070=

USA.gov is the U.S. government's official web portal to all federal, state and local government web resources and services.